createdAt,value
2023-01-13T00:07:38.812Z,98932.52
2023-01-13T00:11:42.466Z,98927.80
2023-01-13T00:15:46.275Z,98927.62
2023-01-13T00:19:49.964Z,98924.09
2023-01-13T00:23:53.533Z,98913.70
2023-01-13T00:27:59.393Z,98907.67
2023-01-13T00:36:40.189Z,98914.89
2023-01-13T00:40:43.877Z,98912.24
2023-01-13T00:54:23.718Z,98902.27
2023-01-13T00:58:36.540Z,98895.84
2023-01-13T01:07:29.062Z,98899.16
2023-01-13T01:11:32.702Z,98895.34
2023-01-13T01:15:35.026Z,98893.06
2023-01-13T01:34:21.189Z,98874.60
2023-01-13T01:38:11.216Z,98871.20
2023-01-13T01:42:16.345Z,98879.84
2023-01-13T01:45:58.917Z,98879.64
2023-01-13T01:49:53.235Z,98872.15
2023-01-13T01:53:49.826Z,98870.73
2023-01-13T01:57:33.264Z,98864.17
2023-01-13T02:01:36.991Z,98864.95
2023-01-13T02:05:58.271Z,98864.79
2023-01-13T02:09:55.224Z,98854.93
2023-01-13T02:14:01.770Z,98858.33
2023-01-13T02:30:49.663Z,98853.48
2023-01-13T02:34:59.392Z,98855.01
2023-01-13T02:38:55.688Z,98857.01
2023-01-13T02:43:07.045Z,98859.23
2023-01-13T02:47:10.697Z,98852.58
2023-01-13T02:51:07.022Z,98850.30
2023-01-13T02:54:53.974Z,98844.53
2023-01-13T03:03:53.258Z,98833.85
2023-01-13T03:08:05.846Z,98834.25
2023-01-13T03:12:06.476Z,98836.10
2023-01-13T03:20:37.081Z,98832.34
2023-01-13T03:24:43.602Z,98832.80
2023-01-13T03:28:59.365Z,98819.85
2023-01-13T03:38:04.503Z,98821.65
2023-01-13T03:42:11.012Z,98819.15
2023-01-13T03:46:14.646Z,98817.11
2023-01-13T03:50:26.253Z,98819.94
2023-01-13T03:54:29.898Z,98822.07
2023-01-13T03:58:33.483Z,98821.30
2023-01-13T04:02:45.917Z,98820.16
2023-01-13T04:06:58.712Z,98820.11
2023-01-13T04:11:02.389Z,98818.05
2023-01-13T04:14:58.364Z,98813.86
2023-01-13T04:19:14.127Z,98816.84
2023-01-13T04:23:23.157Z,98816.08
2023-01-13T04:27:26.739Z,98812.68
2023-01-13T04:31:12.698Z,98813.59
2023-01-13T04:46:04.400Z,98808.33
2023-01-13T04:54:56.714Z,98822.39
2023-01-13T04:58:43.880Z,98816.20
2023-01-13T05:07:43.077Z,98814.50
2023-01-13T05:26:08.806Z,98805.59
2023-01-13T05:30:12.439Z,98811.16
2023-01-13T05:39:11.580Z,98816.14
2023-01-13T05:43:13.511Z,98798.96
2023-01-13T05:47:28.394Z,98795.14
2023-01-13T05:51:32.198Z,98799.13
2023-01-13T06:06:43.351Z,98801.27
2023-01-13T06:15:13.980Z,98811.41
2023-01-13T06:19:09.243Z,98813.90
2023-01-13T06:23:31.676Z,98810.73
2023-01-13T06:27:35.260Z,98810.52
2023-01-13T06:31:37.621Z,98815.42
2023-01-13T06:35:41.390Z,98820.86
2023-01-13T06:39:37.384Z,98830.79
2023-01-13T06:43:41.000Z,98835.45
2023-01-13T06:52:30.471Z,98827.21
2023-01-13T06:56:34.083Z,98834.58
2023-01-13T06:59:50.613Z,98832.38
2023-01-13T07:03:36.212Z,98836.06
2023-01-13T07:07:32.884Z,98831.05
2023-01-13T07:11:16.416Z,98832.52
2023-01-13T07:15:18.539Z,98831.99
2023-01-13T07:19:05.390Z,98828.35
2023-01-13T07:22:47.402Z,98836.31
2023-01-13T07:26:43.382Z,98835.40
2023-01-13T07:30:16.991Z,98839.27
2023-01-13T07:33:36.169Z,98840.56
2023-01-13T07:37:19.477Z,98843.27
2023-01-13T07:41:23.655Z,98837.30
2023-01-13T07:44:45.939Z,98846.05
2023-01-13T07:48:31.812Z,98847.09
2023-01-13T07:52:34.951Z,98852.91
2023-01-13T07:56:16.768Z,98853.17
2023-01-13T07:59:45.249Z,98856.82
2023-01-13T08:03:40.069Z,98856.02
2023-01-13T08:07:43.638Z,98857.34
2023-01-13T08:11:19.824Z,98854.48
2023-01-13T08:15:14.385Z,98861.08
2023-01-13T08:18:54.710Z,98859.30
2023-01-13T08:22:37.939Z,98861.73
2023-01-13T08:26:23.874Z,98863.40
2023-01-13T08:30:09.565Z,98867.09
2023-01-13T08:33:53.856Z,98862.88
2023-01-13T08:37:50.367Z,98864.59
2023-01-13T08:41:36.769Z,98858.20
2023-01-13T08:45:39.281Z,98856.41
2023-01-13T08:49:39.251Z,98860.59
2023-01-13T08:53:16.631Z,98860.98
2023-01-13T08:57:03.287Z,98867.71
2023-01-13T09:00:56.881Z,98864.21
2023-01-13T09:04:55.971Z,98862.56
2023-01-13T09:08:58.665Z,98864.54
2023-01-13T09:13:00.768Z,98866.64
2023-01-13T09:16:56.870Z,98874.00
2023-01-13T09:20:59.251Z,98872.75
2023-01-13T09:25:02.817Z,98874.07
2023-01-13T09:29:06.419Z,98867.64
2023-01-13T09:33:12.912Z,98864.91
2023-01-13T09:36:53.334Z,98868.19
2023-01-13T09:40:46.013Z,98869.36
2023-01-13T09:44:34.917Z,98869.30
2023-01-13T09:48:53.736Z,98865.64
2023-01-13T09:53:00.171Z,98864.73
2023-01-13T09:56:53.921Z,98868.58
2023-01-13T10:01:11.172Z,98870.50
2023-01-13T10:05:14.797Z,98860.57
2023-01-13T10:09:18.382Z,98858.70
2023-01-13T10:13:27.076Z,98857.31
2023-01-13T10:17:41.154Z,98855.02
2023-01-13T10:21:43.329Z,98853.87
2023-01-13T10:26:12.162Z,98849.34
2023-01-13T10:30:23.492Z,98862.31
2023-01-13T10:34:17.608Z,98854.54
2023-01-13T10:38:21.201Z,98859.20
2023-01-13T10:42:24.907Z,98864.69
2023-01-13T10:46:37.515Z,98859.62
2023-01-13T10:50:47.597Z,98879.02
2023-01-13T10:55:00.163Z,98878.92
2023-01-13T10:59:19.022Z,98872.66
2023-01-13T11:03:22.660Z,98872.36
2023-01-13T11:07:29.171Z,98877.04
2023-01-13T11:11:21.332Z,98887.95
2023-01-13T11:15:21.784Z,98897.58
2023-01-13T11:19:25.367Z,98897.17
2023-01-13T11:23:28.435Z,98901.45
2023-01-13T11:27:38.256Z,98907.00
2023-01-13T11:31:26.956Z,98905.94
2023-01-13T11:35:16.645Z,98901.16
2023-01-13T11:39:08.074Z,98884.19
2023-01-13T11:43:23.949Z,98884.05
2023-01-13T11:47:20.504Z,98875.23
2023-01-13T11:51:31.904Z,98876.08
2023-01-13T11:55:27.777Z,98868.02
2023-01-13T11:59:33.993Z,98846.73
2023-01-13T12:03:29.722Z,98838.41
2023-01-13T12:07:42.495Z,98832.09
2023-01-13T12:11:48.305Z,98831.45
2023-01-13T12:16:01.005Z,98823.98
2023-01-13T12:19:35.912Z,98831.13
2023-01-13T12:23:02.252Z,98830.52
2023-01-13T12:27:05.916Z,98831.84
2023-01-13T12:31:22.848Z,98831.73
2023-01-13T12:35:48.018Z,98842.10
2023-01-13T12:39:57.604Z,98841.62
2023-01-13T12:44:08.817Z,98852.73
2023-01-13T12:48:15.526Z,98856.13
2023-01-13T12:52:37.354Z,98854.36
2023-01-13T12:56:39.603Z,98866.70
2023-01-13T13:00:43.163Z,98866.29
2023-01-13T13:04:51.338Z,98859.34
2023-01-13T13:09:09.049Z,98862.60
2023-01-13T13:13:40.684Z,98867.13
2023-01-13T13:18:10.514Z,98869.97
2023-01-13T13:22:16.835Z,98876.79
2023-01-13T13:26:10.702Z,98882.08
2023-01-13T13:30:20.686Z,98895.92
2023-01-13T13:34:19.391Z,98899.00
2023-01-13T13:38:51.692Z,98889.71
2023-01-13T13:42:44.222Z,98895.52
2023-01-13T13:47:08.713Z,98892.14
2023-01-13T13:51:07.316Z,98877.53
2023-01-13T13:55:12.055Z,98893.71
2023-01-13T13:59:14.585Z,98903.24
2023-01-13T14:03:18.214Z,98911.61
2023-01-13T14:07:34.055Z,98921.13
2023-01-13T14:11:36.648Z,98925.66
2023-01-13T14:16:18.491Z,98916.35
2023-01-13T14:19:47.946Z,98919.48
2023-01-13T14:23:27.995Z,98926.29
2023-01-13T14:27:03.655Z,98934.34
2023-01-13T14:30:50.904Z,98950.19
2023-01-13T14:34:33.519Z,98969.83
2023-01-13T14:38:22.921Z,98971.58
2023-01-13T14:42:25.581Z,98968.73
2023-01-13T14:46:28.135Z,98974.27
2023-01-13T14:50:34.524Z,98970.63
2023-01-13T14:54:38.387Z,98976.58
2023-01-13T14:58:57.284Z,98981.72
2023-01-13T15:03:06.659Z,98981.60
2023-01-13T15:07:19.792Z,98976.53
2023-01-13T15:11:05.680Z,98975.98
2023-01-13T15:14:45.663Z,98981.85
2023-01-13T15:18:42.593Z,98986.15
2023-01-13T15:22:52.833Z,98989.51
2023-01-13T15:27:05.499Z,99001.79
2023-01-13T15:30:45.506Z,99001.02
2023-01-13T15:34:33.189Z,98999.93
2023-01-13T15:38:36.769Z,98995.91
2023-01-13T15:42:38.981Z,99002.36
2023-01-13T15:46:12.516Z,99007.93
2023-01-13T15:50:12.162Z,99014.17
2023-01-13T15:54:19.498Z,99015.86
2023-01-13T15:58:11.210Z,99018.13
2023-01-13T16:01:40.552Z,99019.03
2023-01-13T16:05:37.457Z,99021.73
2023-01-13T16:09:16.965Z,99020.31
2023-01-13T16:13:26.395Z,99021.64
2023-01-13T16:17:17.954Z,99019.23
2023-01-13T16:20:47.480Z,99027.42
2023-01-13T16:24:39.810Z,99031.39
2023-01-13T16:29:31.035Z,99037.81
2023-01-13T16:33:06.948Z,99045.23
2023-01-13T16:37:23.498Z,99052.23
2023-01-13T16:41:18.916Z,99049.28
2023-01-13T16:45:08.489Z,99052.45
2023-01-13T16:49:03.788Z,99059.91
2023-01-13T16:53:07.492Z,99059.64
2023-01-13T16:57:16.943Z,99058.55
2023-01-13T17:01:13.308Z,99059.25
2023-01-13T17:04:43.570Z,99055.01
2023-01-13T17:07:57.924Z,99053.93
2023-01-13T17:12:01.588Z,99061.05
2023-01-13T17:16:02.029Z,99054.25
2023-01-13T17:20:04.258Z,99060.41
2023-01-13T17:23:45.928Z,99062.86
2023-01-13T17:27:25.710Z,99059.02
2023-01-13T17:31:33.168Z,99060.73
2023-01-13T17:35:17.482Z,99070.42
2023-01-13T17:39:26.537Z,99075.71
2023-01-13T17:43:35.075Z,99075.84
2023-01-13T17:48:09.682Z,99075.69
2023-01-13T17:51:56.237Z,99091.24
2023-01-13T17:56:02.129Z,99089.05
2023-01-13T18:01:19.037Z,99095.81
2023-01-13T18:05:21.593Z,99100.13
2023-01-13T18:09:25.054Z,99100.31
2023-01-13T18:13:17.709Z,99102.64
2023-01-13T18:17:24.320Z,99109.27
2023-01-13T18:21:15.889Z,99117.67
2023-01-13T18:24:57.599Z,99111.89
2023-01-13T18:29:00.125Z,99106.02
2023-01-13T18:32:33.687Z,99103.08
2023-01-13T18:36:27.332Z,99114.59
2023-01-13T18:40:41.639Z,99120.48
2023-01-13T18:44:10.252Z,99123.62
2023-01-13T18:48:06.653Z,99124.24
2023-01-13T18:52:04.915Z,99118.17
2023-01-13T18:55:44.999Z,99131.23
2023-01-13T18:59:20.316Z,99140.04
2023-01-13T19:03:29.909Z,99157.50
2023-01-13T19:17:22.016Z,99181.64
2023-01-13T19:21:05.712Z,99199.94
2023-01-13T19:24:44.937Z,99201.55
2023-01-13T19:28:46.461Z,99207.83
2023-01-13T19:32:29.755Z,99236.58
2023-01-13T19:36:35.030Z,99217.70
2023-01-13T19:40:43.605Z,99221.02
2023-01-13T19:44:05.893Z,99235.18
2023-01-13T19:47:59.437Z,99226.35
2023-01-13T19:51:54.349Z,99210.49
2023-01-13T19:55:37.049Z,99207.16
2023-01-13T19:59:40.616Z,99208.48
2023-01-13T20:03:31.023Z,99217.23
2023-01-13T20:07:34.148Z,99224.24
2023-01-13T20:11:18.180Z,99230.34
2023-01-13T20:15:15.599Z,99234.16
2023-01-13T20:18:58.178Z,99233.64
2023-01-13T20:22:27.385Z,99232.40
2023-01-13T20:26:23.995Z,99234.86
2023-01-13T20:30:20.630Z,99235.96
2023-01-13T20:34:22.942Z,99237.65
2023-01-13T20:38:26.326Z,99243.73
2023-01-13T20:42:25.003Z,99249.84
2023-01-13T20:54:13.124Z,99254.17
2023-01-13T20:57:51.719Z,99256.52
2023-01-13T21:01:18.798Z,99263.34
2023-01-13T21:04:59.270Z,99269.89
2023-01-13T21:09:02.901Z,99271.80
2023-01-13T21:13:05.032Z,99279.56
2023-01-13T21:17:02.133Z,99276.16
2023-01-13T21:21:32.175Z,99275.45
2023-01-13T21:25:03.091Z,99278.17
2023-01-13T21:28:37.965Z,99275.59
2023-01-13T21:32:16.534Z,99283.02
2023-01-13T21:36:20.508Z,99283.85
2023-01-13T21:40:15.390Z,99288.20
2023-01-13T21:44:17.300Z,99292.22
2023-01-13T21:48:25.211Z,99295.86
2023-01-13T21:52:27.751Z,99298.16
2023-01-13T21:56:45.050Z,99298.45
2023-01-13T22:00:50.737Z,99302.98
2023-01-13T22:04:47.008Z,99307.66
2023-01-13T22:08:56.632Z,99314.88
2023-01-13T22:13:00.236Z,99316.50
2023-01-13T22:16:51.991Z,99319.89
2023-01-13T22:20:48.933Z,99322.55
2023-01-13T22:24:36.114Z,99314.20
2023-01-13T22:28:39.707Z,99319.23
2023-01-13T22:32:32.945Z,99327.45
2023-01-13T22:36:25.527Z,99330.23
2023-01-13T22:40:03.502Z,99333.11
2023-01-13T22:43:22.617Z,99333.80
2023-01-13T22:47:02.069Z,99339.83
2023-01-13T22:51:05.758Z,99335.30
2023-01-13T22:55:07.008Z,99343.48
2023-01-13T22:59:00.362Z,99343.14
2023-01-13T23:03:00.199Z,99346.43
2023-01-13T23:06:40.810Z,99345.94
2023-01-13T23:10:09.268Z,99349.23
2023-01-13T23:13:59.219Z,99354.33
2023-01-13T23:17:04.531Z,99356.07
2023-01-13T23:20:58.147Z,99351.03
2023-01-13T23:24:53.816Z,99346.97
2023-01-13T23:28:26.038Z,99349.95
2023-01-13T23:32:30.182Z,99350.45
2023-01-13T23:35:52.638Z,99355.83
2023-01-13T23:39:05.631Z,99356.77
2023-01-13T23:43:09.237Z,99375.10
2023-01-13T23:47:11.663Z,99363.73
2023-01-13T23:51:21.227Z,99361.16
2023-01-13T23:55:26.314Z,99365.15
2023-01-13T23:59:23.831Z,99370.73
